Time,TemperatureF,DewpointF,PressureIn,WindDirection,WindDirectionDegrees,WindSpeedMPH,WindSpeedGustMPH,Humidity,HourlyPrecipIn,Conditions,Clouds,dailyrainin,SoftwareType,DateUTC
2013-04-14 00:00:00,53.3,44.1,29.83,NNW,342,2.0,2.0,71,0.00,,,0.00,Wunderground v.1.15,2013-04-14 07:00:00,
2013-04-14 00:05:00,53.2,44.0,29.83,NNW,337,1.0,2.0,71,0.00,,,0.00,Wunderground v.1.15,2013-04-14 07:05:00,
2013-04-14 00:10:00,53.2,44.0,29.84,NNE,12,1.0,1.0,71,0.00,,,0.00,Wunderground v.1.15,2013-04-14 07:10:00,
2013-04-14 00:20:00,53.4,44.2,29.83,North,1,2.0,2.0,71,0.00,,,0.00,Wunderground v.1.15,2013-04-14 07:20:00,
2013-04-14 00:30:00,53.3,44.1,29.84,NNW,333,0.0,2.0,71,0.00,,,0.00,Wunderground v.1.15,2013-04-14 07:30:00,
2013-04-14 00:35:00,53.2,44.0,29.83,NW,316,1.0,2.0,71,0.00,,,0.00,Wunderground v.1.15,2013-04-14 07:35:00,
2013-04-14 00:45:00,53.0,43.8,29.83,NW,326,1.0,2.0,71,0.00,,,0.00,Wunderground v.1.15,2013-04-14 07:45:00,
2013-04-14 00:50:00,52.8,44.0,29.83,NW,309,1.0,1.0,72,0.00,,,0.00,Wunderground v.1.15,2013-04-14 07:50:00,
2013-04-14 00:55:00,52.6,43.8,29.83,NNW,338,1.0,1.0,72,0.00,,,0.00,Wunderground v.1.15,2013-04-14 07:55:00,
2013-04-14 01:05:00,52.0,44.0,29.83,NNW,345,0.0,1.0,74,0.00,,,0.00,Wunderground v.1.15,2013-04-14 08:05:00,
2013-04-14 01:15:00,51.7,44.0,29.84,NNW,328,0.0,0.0,75,0.00,,,0.00,Wunderground v.1.15,2013-04-14 08:15:00,
2013-04-14 01:20:00,51.6,43.9,29.84,NNE,12,0.0,0.0,75,0.00,,,0.00,Wunderground v.1.15,2013-04-14 08:20:00,
2013-04-14 01:30:00,51.2,43.9,29.83,NNW,335,0.0,0.0,76,0.00,,,0.00,Wunderground v.1.15,2013-04-14 08:30:00,
2013-04-14 01:40:00,50.8,43.5,29.83,NW,311,0.0,0.0,76,0.00,,,0.00,Wunderground v.1.15,2013-04-14 08:40:00,
2013-04-14 01:50:00,50.8,43.5,29.83,NNW,333,0.0,0.0,76,0.00,,,0.00,Wunderground v.1.15,2013-04-14 08:50:00,
2013-04-14 01:55:00,50.7,43.4,29.83,NW,321,0.0,0.0,76,0.00,,,0.00,Wunderground v.1.15,2013-04-14 08:55:00,
2013-04-14 02:05:00,50.6,43.3,29.83,NNW,331,0.0,0.0,76,0.00,,,0.00,Wunderground v.1.15,2013-04-14 09:05:00,
2013-04-14 02:10:00,50.5,43.6,29.83,NW,316,0.0,0.0,77,0.00,,,0.00,Wunderground v.1.15,2013-04-14 09:10:00,
2013-04-14 02:20:00,50.5,43.6,29.83,NNW,336,0.0,0.0,77,0.00,,,0.00,Wunderground v.1.15,2013-04-14 09:20:00,
2013-04-14 02:25:00,50.4,43.5,29.83,NNW,336,0.0,0.0,77,0.00,,,0.00,Wunderground v.1.15,2013-04-14 09:25:00,
2013-04-14 02:35:00,50.1,43.5,29.83,NW,309,0.0,0.0,78,0.00,,,0.00,Wunderground v.1.15,2013-04-14 09:35:00,
2013-04-14 02:40:00,49.9,43.3,29.83,NNW,343,0.0,0.0,78,0.00,,,0.00,Wunderground v.1.15,2013-04-14 09:40:00,
2013-04-14 02:50:00,49.9,43.6,29.83,NNW,332,0.0,0.0,79,0.00,,,0.00,Wunderground v.1.15,2013-04-14 09:50:00,
2013-04-14 03:00:00,49.9,43.6,29.83,NW,323,0.0,0.0,79,0.00,,,0.00,Wunderground v.1.15,2013-04-14 10:00:00,
2013-04-14 03:10:00,49.8,43.5,29.83,NNW,341,0.0,0.0,79,0.00,,,0.00,Wunderground v.1.15,2013-04-14 10:10:00,
2013-04-14 03:20:00,49.6,43.4,29.82,NW,326,0.0,0.0,79,0.00,,,0.00,Wunderground v.1.15,2013-04-14 10:20:00,
2013-04-14 03:25:00,49.6,43.4,29.83,NW,315,1.0,1.0,79,0.00,,,0.00,Wunderground v.1.15,2013-04-14 10:25:00,
2013-04-14 03:35:00,49.8,43.5,29.82,NW,326,0.0,0.0,79,0.00,,,0.00,Wunderground v.1.15,2013-04-14 10:35:00,
2013-04-14 03:45:00,49.8,43.5,29.83,North,354,1.0,1.0,79,0.00,,,0.00,Wunderground v.1.15,2013-04-14 10:45:00,
2013-04-14 03:50:00,49.6,43.4,29.83,NW,323,1.0,1.0,79,0.00,,,0.00,Wunderground v.1.15,2013-04-14 10:50:00,
2013-04-14 04:00:00,49.5,43.3,29.83,NW,323,1.0,1.0,79,0.00,,,0.00,Wunderground v.1.15,2013-04-14 11:00:00,
2013-04-14 04:05:00,49.4,43.2,29.83,NW,326,1.0,1.0,79,0.00,,,0.00,Wunderground v.1.15,2013-04-14 11:05:00,
2013-04-14 04:15:00,49.2,43.3,29.83,NNE,25,0.0,1.0,80,0.00,,,0.00,Wunderground v.1.15,2013-04-14 11:15:00,
2013-04-14 04:25:00,49.1,43.2,29.83,North,10,2.0,2.0,80,0.00,,,0.00,Wunderground v.1.15,2013-04-14 11:25:00,
2013-04-14 04:35:00,49.0,43.1,29.83,North,353,2.0,2.0,80,0.00,,,0.00,Wunderground v.1.15,2013-04-14 11:35:00,
2013-04-14 04:45:00,48.8,42.9,29.83,NNW,340,2.0,3.0,80,0.00,,,0.00,Wunderground v.1.15,2013-04-14 11:45:00,
2013-04-14 04:50:00,48.8,42.6,29.83,North,349,2.0,3.0,79,0.00,,,0.00,Wunderground v.1.15,2013-04-14 11:50:00,
2013-04-14 05:00:00,48.4,42.5,29.83,North,9,2.0,3.0,80,0.00,,,0.00,Wunderground v.1.15,2013-04-14 12:00:00,
2013-04-14 05:05:00,48.2,42.3,29.84,NNE,13,2.0,3.0,80,0.00,,,0.00,Wunderground v.1.15,2013-04-14 12:05:00,
2013-04-14 05:15:00,48.0,42.1,29.84,NNE,13,2.0,2.0,80,0.00,,,0.00,Wunderground v.1.15,2013-04-14 12:15:00,
2013-04-14 05:25:00,47.5,42.0,29.84,North,359,2.0,4.0,81,0.00,,,0.00,Wunderground v.1.15,2013-04-14 12:25:00,
2013-04-14 05:30:00,47.3,42.1,29.84,North,6,2.0,2.0,82,0.00,,,0.00,Wunderground v.1.15,2013-04-14 12:30:00,
2013-04-14 05:40:00,47.2,42.0,29.83,North,1,1.0,1.0,82,0.00,,,0.00,Wunderground v.1.15,2013-04-14 12:40:00,
2013-04-14 05:50:00,46.9,41.7,29.83,NNW,333,2.0,2.0,82,0.00,,,0.00,Wunderground v.1.15,2013-04-14 12:50:00,
2013-04-14 06:00:00,46.8,41.6,29.84,NNW,348,2.0,2.0,82,0.00,,,0.00,Wunderground v.1.15,2013-04-14 13:00:00,
2013-04-14 06:05:00,46.7,41.5,29.83,North,1,2.0,2.0,82,0.00,,,0.00,Wunderground v.1.15,2013-04-14 13:05:00,
2013-04-14 06:15:00,46.4,41.5,29.83,North,359,1.0,2.0,83,0.00,,,0.00,Wunderground v.1.15,2013-04-14 13:15:00,
2013-04-14 06:20:00,46.2,41.3,29.84,North,352,0.0,0.0,83,0.00,,,0.00,Wunderground v.1.15,2013-04-14 13:20:00,
2013-04-14 06:30:00,45.6,41.0,29.84,North,352,0.0,0.0,84,0.00,,,0.00,Wunderground v.1.15,2013-04-14 13:30:00,
2013-04-14 06:35:00,45.2,41.0,29.84,NNW,342,0.0,0.0,85,0.00,,,0.00,Wunderground v.1.15,2013-04-14 13:35:00,
2013-04-14 06:45:00,44.9,41.0,29.84,NNW,344,0.0,0.0,86,0.00,,,0.00,Wunderground v.1.15,2013-04-14 13:45:00,
2013-04-14 06:50:00,44.9,41.0,29.84,NNW,345,0.0,0.0,86,0.00,,,0.00,Wunderground v.1.15,2013-04-14 13:50:00,
2013-04-14 07:00:00,44.9,41.0,29.84,North,6,0.0,0.0,86,0.00,,,0.00,Wunderground v.1.15,2013-04-14 14:00:00,
2013-04-14 07:05:00,45.1,41.2,29.84,North,5,0.0,0.0,86,0.00,,,0.00,Wunderground v.1.15,2013-04-14 14:05:00,
2013-04-14 07:15:00,45.5,41.3,29.85,NNW,343,0.0,0.0,85,0.00,,,0.00,Wunderground v.1.15,2013-04-14 14:15:00,
2013-04-14 07:25:00,46.3,41.1,29.85,NNE,19,0.0,0.0,82,0.00,,,0.00,Wunderground v.1.15,2013-04-14 14:25:00,
2013-04-14 07:30:00,46.8,41.3,29.85,WNW,288,0.0,0.0,81,0.00,,,0.00,Wunderground v.1.15,2013-04-14 14:30:00,
2013-04-14 07:40:00,47.5,41.0,29.85,NNW,339,0.0,0.0,78,0.00,,,0.00,Wunderground v.1.15,2013-04-14 14:40:00,
2013-04-14 07:50:00,48.6,41.4,29.86,NW,305,0.0,0.0,76,0.00,,,0.00,Wunderground v.1.15,2013-04-14 14:50:00,
2013-04-14 08:00:00,49.6,42.0,29.86,North,10,1.0,1.0,75,0.00,,,0.00,Wunderground v.1.15,2013-04-14 15:00:00,
2013-04-14 08:10:00,50.8,42.8,29.86,North,353,0.0,1.0,74,0.00,,,0.00,Wunderground v.1.15,2013-04-14 15:10:00,
2013-04-14 08:20:00,52.5,43.4,29.86,WNW,292,1.0,1.0,71,0.00,,,0.00,Wunderground v.1.15,2013-04-14 15:20:00,
2013-04-14 08:30:00,54.0,43.7,29.87,NNE,13,1.0,1.0,68,0.00,,,0.00,Wunderground v.1.15,2013-04-14 15:30:00,
2013-04-14 08:35:00,54.7,43.6,29.87,WNW,284,1.0,1.0,66,0.00,,,0.00,Wunderground v.1.15,2013-04-14 15:35:00,
2013-04-14 08:45:00,55.9,43.1,29.87,WNW,303,1.0,2.0,62,0.00,,,0.00,Wunderground v.1.15,2013-04-14 15:45:00,
2013-04-14 08:50:00,56.5,43.2,29.87,NNW,330,1.0,1.0,61,0.00,,,0.00,Wunderground v.1.15,2013-04-14 15:50:00,
2013-04-14 09:00:00,57.4,39.9,29.88,North,351,3.0,3.0,52,0.00,,,0.00,Wunderground v.1.15,2013-04-14 16:00:00,
2013-04-14 09:05:00,57.8,38.8,29.88,NE,55,4.0,4.0,49,0.00,,,0.00,Wunderground v.1.15,2013-04-14 16:05:00,
2013-04-14 09:15:00,58.2,38.1,29.88,NW,320,5.0,5.0,47,0.00,,,0.00,Wunderground v.1.15,2013-04-14 16:15:00,
2013-04-14 09:20:00,58.4,38.2,29.88,North,8,4.0,5.0,47,0.00,,,0.00,Wunderground v.1.15,2013-04-14 16:20:00,
2013-04-14 09:25:00,58.8,38.1,29.88,North,357,4.0,11.0,46,0.00,,,0.00,Wunderground v.1.15,2013-04-14 16:25:00,
2013-04-14 09:35:00,59.1,37.8,29.89,NNW,343,4.0,4.0,45,0.00,,,0.00,Wunderground v.1.15,2013-04-14 16:35:00,
2013-04-14 09:40:00,59.4,38.0,29.89,NNW,328,4.0,4.0,45,0.00,,,0.00,Wunderground v.1.15,2013-04-14 16:40:00,
2013-04-14 09:50:00,59.7,38.3,29.88,NNE,29,3.0,3.0,45,0.00,,,0.00,Wunderground v.1.15,2013-04-14 16:50:00,
2013-04-14 10:00:00,60.1,38.7,29.88,NW,311,4.0,5.0,45,0.00,,,0.00,Wunderground v.1.15,2013-04-14 17:00:00,
2013-04-14 10:05:00,60.5,38.5,29.88,NNE,16,3.0,5.0,44,0.00,,,0.00,Wunderground v.1.15,2013-04-14 17:05:00,
2013-04-14 10:10:00,60.9,38.2,29.88,NNW,339,3.0,3.0,43,0.00,,,0.00,Wunderground v.1.15,2013-04-14 17:10:00,
2013-04-14 10:20:00,61.6,38.3,29.88,North,357,4.0,4.0,42,0.00,,,0.00,Wunderground v.1.15,2013-04-14 17:20:00,
2013-04-14 10:30:00,61.9,37.3,29.88,North,358,3.0,3.0,40,0.00,,,0.00,Wunderground v.1.15,2013-04-14 17:30:00,
2013-04-14 10:35:00,62.2,38.2,29.88,NNE,12,3.0,3.0,41,0.00,,,0.00,Wunderground v.1.15,2013-04-14 17:35:00,
2013-04-14 10:45:00,63.1,38.4,29.88,NW,315,2.0,4.0,40,0.00,,,0.00,Wunderground v.1.15,2013-04-14 17:45:00,
2013-04-14 10:50:00,63.4,38.0,29.88,NW,316,2.0,2.0,39,0.00,,,0.00,Wunderground v.1.15,2013-04-14 17:50:00,
2013-04-14 11:00:00,64.3,36.8,29.88,NW,311,2.0,3.0,36,0.00,,,0.00,Wunderground v.1.15,2013-04-14 18:00:00,
2013-04-14 11:05:00,64.5,38.3,29.88,NW,322,3.0,3.0,38,0.00,,,0.00,Wunderground v.1.15,2013-04-14 18:05:00,
2013-04-14 11:15:00,65.3,36.9,29.89,West,259,3.0,3.0,35,0.00,,,0.00,Wunderground v.1.15,2013-04-14 18:15:00,
2013-04-14 11:25:00,65.4,36.3,29.88,WNW,301,3.0,5.0,34,0.00,,,0.00,Wunderground v.1.15,2013-04-14 18:25:00,
2013-04-14 11:30:00,65.6,37.9,29.88,NNW,345,4.0,4.0,36,0.00,,,0.00,Wunderground v.1.15,2013-04-14 18:30:00,
2013-04-14 11:35:00,65.9,38.2,29.88,NNW,332,3.0,4.0,36,0.00,,,0.00,Wunderground v.1.15,2013-04-14 18:35:00,
2013-04-14 11:45:00,66.3,36.3,29.88,WNW,287,4.0,4.0,33,0.00,,,0.00,Wunderground v.1.15,2013-04-14 18:45:00,
2013-04-14 11:50:00,66.1,36.9,29.88,North,353,4.0,4.0,34,0.00,,,0.00,Wunderground v.1.15,2013-04-14 18:50:00,
2013-04-14 12:00:00,66.9,39.1,29.87,SSE,148,3.0,3.0,36,0.00,,,0.00,Wunderground v.1.15,2013-04-14 19:00:00,
2013-04-14 12:05:00,67.6,38.2,29.87,NW,321,3.0,4.0,34,0.00,,,0.00,Wunderground v.1.15,2013-04-14 19:05:00,
2013-04-14 12:15:00,67.8,35.2,29.87,NW,323,4.0,9.0,30,0.00,,,0.00,Wunderground v.1.15,2013-04-14 19:15:00,
2013-04-14 12:20:00,68.0,36.2,29.87,NNW,332,4.0,5.0,31,0.00,,,0.00,Wunderground v.1.15,2013-04-14 19:20:00,
2013-04-14 12:30:00,68.7,34.3,29.86,NW,311,3.0,4.0,28,0.00,,,0.00,Wunderground v.1.15,2013-04-14 19:30:00,
2013-04-14 12:35:00,69.3,31.9,29.86,NW,305,3.0,4.0,25,0.00,,,0.00,Wunderground v.1.15,2013-04-14 19:35:00,
2013-04-14 12:40:00,69.2,33.8,29.86,NE,40,3.0,9.0,27,0.00,,,0.00,Wunderground v.1.15,2013-04-14 19:40:00,
2013-04-14 12:50:00,69.8,33.3,29.86,NW,323,3.0,5.0,26,0.00,,,0.00,Wunderground v.1.15,2013-04-14 19:50:00,
2013-04-14 13:00:00,70.1,32.6,29.86,WNW,301,4.0,5.0,25,0.00,,,0.00,Wunderground v.1.15,2013-04-14 20:00:00,
2013-04-14 13:05:00,69.9,32.5,29.85,ENE,75,4.0,5.0,25,0.00,,,0.00,Wunderground v.1.15,2013-04-14 20:05:00,
2013-04-14 13:15:00,70.8,32.2,29.85,NNE,16,3.0,4.0,24,0.00,,,0.00,Wunderground v.1.15,2013-04-14 20:15:00,
2013-04-14 13:20:00,70.9,29.0,29.85,NNW,347,3.0,3.0,21,0.00,,,0.00,Wunderground v.1.15,2013-04-14 20:20:00,
2013-04-14 13:30:00,70.8,27.7,29.84,ENE,57,4.0,6.0,20,0.00,,,0.00,Wunderground v.1.15,2013-04-14 20:30:00,
2013-04-14 13:35:00,71.0,31.3,29.84,NNE,27,4.0,6.0,23,0.00,,,0.00,Wunderground v.1.15,2013-04-14 20:35:00,
2013-04-14 13:45:00,71.2,31.5,29.84,WNW,294,5.0,7.0,23,0.00,,,0.00,Wunderground v.1.15,2013-04-14 20:45:00,
2013-04-14 13:55:00,72.0,31.0,29.84,NNE,12,4.0,5.0,22,0.00,,,0.00,Wunderground v.1.15,2013-04-14 20:55:00,
2013-04-14 14:05:00,72.4,34.6,29.83,NNW,330,2.0,3.0,25,0.00,,,0.00,Wunderground v.1.15,2013-04-14 21:05:00,
2013-04-14 14:10:00,72.7,34.8,29.83,West,273,2.0,3.0,25,0.00,,,0.00,Wunderground v.1.15,2013-04-14 21:10:00,
2013-04-14 14:20:00,73.1,35.2,29.83,NW,312,2.0,5.0,25,0.00,,,0.00,Wunderground v.1.15,2013-04-14 21:20:00,
2013-04-14 14:30:00,72.9,34.0,29.83,WNW,285,3.0,3.0,24,0.00,,,0.00,Wunderground v.1.15,2013-04-14 21:30:00,
2013-04-14 14:35:00,73.0,33.0,29.83,NE,41,4.0,4.0,23,0.00,,,0.00,Wunderground v.1.15,2013-04-14 21:35:00,
2013-04-14 14:45:00,73.0,33.0,29.83,NNW,334,2.0,3.0,23,0.00,,,0.00,Wunderground v.1.15,2013-04-14 21:45:00,
2013-04-14 14:50:00,72.3,31.3,29.83,NW,319,3.0,3.0,22,0.00,,,0.00,Wunderground v.1.15,2013-04-14 21:50:00,
2013-04-14 15:00:00,72.6,30.4,29.82,NNE,27,3.0,3.0,21,0.00,,,0.00,Wunderground v.1.15,2013-04-14 22:00:00,
2013-04-14 15:05:00,72.6,30.4,29.82,NW,316,3.0,3.0,21,0.00,,,0.00,Wunderground v.1.15,2013-04-14 22:05:00,
2013-04-14 15:15:00,72.8,32.8,29.82,North,357,4.0,4.0,23,0.00,,,0.00,Wunderground v.1.15,2013-04-14 22:15:00,
2013-04-14 15:20:00,72.8,33.9,29.82,NNW,334,4.0,4.0,24,0.00,,,0.00,Wunderground v.1.15,2013-04-14 22:20:00,
2013-04-14 15:25:00,73.5,36.5,29.81,North,11,3.0,4.0,26,0.00,,,0.00,Wunderground v.1.15,2013-04-14 22:25:00,
2013-04-14 15:35:00,74.2,36.1,29.81,WNW,284,3.0,5.0,25,0.00,,,0.00,Wunderground v.1.15,2013-04-14 22:35:00,
2013-04-14 15:45:00,73.9,35.8,29.81,NW,325,3.0,3.0,25,0.00,,,0.00,Wunderground v.1.15,2013-04-14 22:45:00,
2013-04-14 15:50:00,74.1,36.0,29.81,WNW,302,3.0,3.0,25,0.00,,,0.00,Wunderground v.1.15,2013-04-14 22:50:00,
2013-04-14 16:00:00,74.3,37.2,29.80,ENE,67,2.0,2.0,26,0.00,,,0.00,Wunderground v.1.15,2013-04-14 23:00:00,
2013-04-14 16:10:00,74.1,39.8,29.80,NNW,340,3.0,3.0,29,0.00,,,0.00,Wunderground v.1.15,2013-04-14 23:10:00,
2013-04-14 16:20:00,75.2,38.9,29.79,WNW,288,2.0,5.0,27,0.00,,,0.00,Wunderground v.1.15,2013-04-14 23:20:00,
2013-04-14 16:30:00,75.0,39.7,29.78,WSW,258,3.0,4.0,28,0.00,,,0.00,Wunderground v.1.15,2013-04-14 23:30:00,
2013-04-14 16:35:00,74.9,40.5,29.78,West,274,3.0,4.0,29,0.00,,,0.00,Wunderground v.1.15,2013-04-14 23:35:00,
2013-04-14 16:45:00,75.0,41.5,29.78,West,266,4.0,4.0,30,0.00,,,0.00,Wunderground v.1.15,2013-04-14 23:45:00,
2013-04-14 16:50:00,75.3,41.7,29.77,West,262,3.0,3.0,30,0.00,,,0.00,Wunderground v.1.15,2013-04-14 23:50:00,
2013-04-14 17:00:00,74.9,41.4,29.77,WNW,284,4.0,4.0,30,0.00,,,0.00,Wunderground v.1.15,2013-04-15 00:00:00,
2013-04-14 17:05:00,74.9,42.2,29.77,WNW,293,3.0,4.0,31,0.00,,,0.00,Wunderground v.1.15,2013-04-15 00:05:00,
2013-04-14 17:15:00,74.9,42.2,29.77,WNW,290,4.0,4.0,31,0.00,,,0.00,Wunderground v.1.15,2013-04-15 00:15:00,
2013-04-14 22:35:00,55.0,44.6,29.83,West,273,3.0,3.0,68,0.00,,,0.00,Wunderground v.1.15,2013-04-15 05:35:00,
2013-04-14 22:40:00,54.9,44.5,29.83,NNW,339,3.0,3.0,68,0.00,,,0.00,Wunderground v.1.15,2013-04-15 05:40:00,
2013-04-14 22:45:00,54.7,44.7,29.83,WNW,287,2.0,2.0,69,0.00,,,0.00,Wunderground v.1.15,2013-04-15 05:45:00,
2013-04-14 22:55:00,54.3,44.7,29.84,NW,309,1.0,1.0,70,0.00,,,0.00,Wunderground v.1.15,2013-04-15 05:55:00,
2013-04-14 23:00:00,54.2,44.6,29.83,WSW,240,0.0,0.0,70,0.00,,,0.00,Wunderground v.1.15,2013-04-15 06:00:00,
2013-04-14 23:10:00,53.9,44.7,29.83,West,266,1.0,2.0,71,0.00,,,0.00,Wunderground v.1.15,2013-04-15 06:10:00,
2013-04-14 23:15:00,53.9,45.1,29.83,West,260,1.0,2.0,72,0.00,,,0.00,Wunderground v.1.15,2013-04-15 06:15:00,
2013-04-14 23:25:00,53.8,45.0,29.82,WSW,242,3.0,3.0,72,0.00,,,0.00,Wunderground v.1.15,2013-04-15 06:25:00,
2013-04-14 23:40:00,53.6,45.2,29.83,WSW,252,2.0,2.0,73,0.00,,,0.00,Wunderground v.1.15,2013-04-15 06:40:00,
2013-04-14 23:50:00,53.3,45.2,29.83,West,259,0.0,1.0,74,0.00,,,0.00,Wunderground v.1.15,2013-04-15 06:50:00,